createdAt,value
2023-04-02T00:03:00.657Z,98512.38
2023-04-02T00:07:25.224Z,98514.41
2023-04-02T00:11:31.472Z,98523.50
2023-04-02T00:15:34.351Z,98531.44
2023-04-02T00:19:41.687Z,98532.88
2023-04-02T00:23:43.743Z,98540.31
2023-04-02T00:27:46.999Z,98547.41
2023-04-02T00:31:51.432Z,98550.47
2023-04-02T00:35:55.192Z,98557.66
2023-04-02T00:40:02.081Z,98564.75
2023-04-02T00:44:05.721Z,98568.38
2023-04-02T00:48:23.780Z,98569.66
2023-04-02T00:52:29.469Z,98581.56
2023-04-02T00:56:35.730Z,98581.91
2023-04-02T01:00:39.014Z,98593.56
2023-04-02T01:04:41.593Z,98594.34
2023-04-02T01:09:03.907Z,98603.53
2023-04-02T01:13:17.933Z,98619.31
2023-04-02T01:17:42.309Z,98624.22
2023-04-02T01:21:57.824Z,98625.59
2023-04-02T01:26:10.413Z,98631.09
2023-04-02T01:30:14.695Z,98638.66
2023-04-02T01:34:19.314Z,98649.56
2023-04-02T01:38:26.576Z,98661.06
2023-04-02T01:42:33.346Z,98673.38
2023-04-02T01:46:40.805Z,98685.09
2023-04-02T01:50:44.502Z,98692.31
2023-04-02T01:54:47.518Z,98696.53
2023-04-02T01:58:50.053Z,98700.13
2023-04-02T02:02:53.337Z,98713.22
2023-04-02T02:06:56.680Z,98723.44
2023-04-02T02:10:59.096Z,98729.53
2023-04-02T02:15:00.904Z,98732.22
2023-04-02T02:19:05.114Z,98740.00
2023-04-02T02:23:07.303Z,98741.66
2023-04-02T02:27:40.324Z,98750.81
2023-04-02T02:31:45.988Z,98760.28
2023-04-02T02:35:54.913Z,98774.06
2023-04-02T02:39:59.451Z,98769.56
2023-04-02T02:44:06.083Z,98782.03
2023-04-02T02:48:13.046Z,98783.97
2023-04-02T02:52:19.265Z,98801.94
2023-04-02T02:56:22.471Z,98806.94
2023-04-02T03:00:25.049Z,98820.38
2023-04-02T03:04:27.330Z,98823.50
2023-04-02T03:08:34.004Z,98831.63
2023-04-02T03:12:42.287Z,98833.94
2023-04-02T03:16:46.451Z,98843.75
2023-04-02T03:20:53.022Z,98852.44
2023-04-02T03:24:59.356Z,98868.31
2023-04-02T03:29:02.552Z,98869.09
2023-04-02T03:33:11.391Z,98876.22
2023-04-02T03:37:19.887Z,98885.00
2023-04-02T03:41:28.766Z,98894.78
2023-04-02T03:45:36.118Z,98905.38
2023-04-02T03:49:43.875Z,98913.28
2023-04-02T03:53:47.056Z,98923.13
2023-04-02T03:57:59.592Z,98934.38
2023-04-02T04:02:11.583Z,98944.16
2023-04-02T04:06:20.228Z,98952.88
2023-04-02T04:10:25.426Z,98966.84
2023-04-02T04:14:31.953Z,98969.53
2023-04-02T04:18:40.793Z,98985.75
2023-04-02T04:22:42.300Z,99000.75
2023-04-02T04:26:50.058Z,99004.91
2023-04-02T04:30:59.127Z,99012.34
2023-04-02T04:35:05.863Z,99019.41
2023-04-02T04:39:14.578Z,99028.56
2023-04-02T04:43:20.220Z,99041.63
2023-04-02T04:47:28.940Z,99052.03
2023-04-02T04:51:37.232Z,99056.81
2023-04-02T04:55:40.374Z,99059.50
2023-04-02T04:59:47.661Z,99071.97
2023-04-02T05:03:56.893Z,99077.34
2023-04-02T05:08:04.018Z,99087.94
2023-04-02T05:12:14.541Z,99095.00
2023-04-02T05:16:23.981Z,99100.41
2023-04-02T05:20:32.426Z,99124.88
2023-04-02T05:24:42.281Z,99130.31
2023-04-02T05:28:48.638Z,99137.94
2023-04-02T05:32:54.920Z,99152.28
2023-04-02T05:36:58.023Z,99163.03
2023-04-02T05:41:02.934Z,99170.88
2023-04-02T05:45:15.898Z,99184.47
2023-04-02T05:49:24.019Z,99187.38
2023-04-02T05:53:30.371Z,99187.94
2023-04-02T05:57:44.569Z,99201.06
2023-04-02T06:01:56.541Z,99208.41
2023-04-02T06:06:01.154Z,99216.81
2023-04-02T06:10:10.031Z,99227.38
2023-04-02T06:14:13.287Z,99231.34
2023-04-02T06:18:18.390Z,99248.28
2023-04-02T06:22:24.323Z,99254.72
2023-04-02T06:26:32.070Z,99256.47
2023-04-02T06:30:37.223Z,99259.09
2023-04-02T06:34:40.855Z,99271.13
2023-04-02T06:38:43.785Z,99277.00
2023-04-02T06:42:49.728Z,99291.63
2023-04-02T06:46:54.038Z,99293.53
2023-04-02T06:51:01.880Z,99299.22
2023-04-02T06:55:21.302Z,99312.72
2023-04-02T06:59:24.973Z,99313.34
2023-04-02T07:03:28.432Z,99322.19
2023-04-02T07:07:30.328Z,99329.03
2023-04-02T07:11:31.799Z,99347.41
2023-04-02T07:15:34.983Z,99354.09
2023-04-02T07:19:36.692Z,99349.72
2023-04-02T07:23:38.307Z,99366.69
2023-04-02T07:27:39.857Z,99367.44
2023-04-02T07:31:43.318Z,99378.38
2023-04-02T07:35:45.526Z,99384.94
2023-04-02T07:39:47.000Z,99389.13
2023-04-02T07:43:48.481Z,99402.88
2023-04-02T07:47:51.440Z,99405.50
2023-04-02T07:51:52.992Z,99402.69
2023-04-02T07:55:54.458Z,99419.22
2023-04-02T07:59:55.948Z,99426.22
2023-04-02T08:03:58.828Z,99430.09
2023-04-02T08:08:00.290Z,99436.06
2023-04-02T08:12:01.774Z,99442.97
2023-04-02T08:16:04.714Z,99460.16
2023-04-02T08:20:14.258Z,99465.56
2023-04-02T08:24:15.973Z,99472.19
2023-04-02T08:28:17.981Z,99475.09
2023-04-02T08:32:19.447Z,99483.09
2023-04-02T08:36:28.817Z,99486.94
2023-04-02T08:40:35.614Z,99491.31
2023-04-02T08:44:45.524Z,99508.41
2023-04-02T08:48:53.925Z,99507.91
2023-04-02T08:52:58.048Z,99512.63
2023-04-02T08:57:04.193Z,99518.72
2023-04-02T09:01:07.856Z,99525.19
2023-04-02T09:05:17.078Z,99523.41
2023-04-02T09:09:21.176Z,99537.09
2023-04-02T09:13:25.122Z,99545.22
2023-04-02T09:17:27.520Z,99550.34
2023-04-02T09:21:36.368Z,99557.41
2023-04-02T09:25:54.103Z,99557.03
2023-04-02T09:30:14.267Z,99569.63
2023-04-02T09:34:29.973Z,99585.56
2023-04-02T09:38:31.658Z,99591.22
2023-04-02T09:42:35.877Z,99601.00
2023-04-02T09:46:37.468Z,99604.91
2023-04-02T09:50:39.838Z,99612.34
2023-04-02T09:54:41.310Z,99617.38
2023-04-02T09:58:45.486Z,99621.47
2023-04-02T10:03:00.724Z,99627.44
2023-04-02T10:07:03.133Z,99628.13
2023-04-02T10:11:10.277Z,99639.38
2023-04-02T10:15:21.006Z,99651.69
2023-04-02T10:19:28.566Z,99650.25
2023-04-02T10:23:31.866Z,99664.97
2023-04-02T10:27:39.057Z,99661.25
2023-04-02T10:31:49.969Z,99667.47
2023-04-02T10:35:57.313Z,99674.09
2023-04-02T10:40:01.794Z,99681.16
2023-04-02T10:44:27.425Z,99684.00
2023-04-02T10:48:34.659Z,99685.16
2023-04-02T10:52:43.575Z,99706.19
2023-04-02T10:56:51.216Z,99707.75
2023-04-02T11:00:56.735Z,99707.44
2023-04-02T11:05:05.699Z,99705.72
2023-04-02T11:09:16.758Z,99720.53
2023-04-02T11:13:24.036Z,99723.47
2023-04-02T11:17:25.598Z,99722.88
2023-04-02T11:21:57.338Z,99730.63
2023-04-02T11:26:34.009Z,99738.47
2023-04-02T11:30:35.623Z,99738.09
2023-04-02T11:35:06.507Z,99745.69
2023-04-02T11:39:17.384Z,99756.00
2023-04-02T11:43:48.993Z,99754.00
2023-04-02T11:48:28.877Z,99756.91
2023-04-02T11:52:34.167Z,99764.28
2023-04-02T11:56:43.473Z,99770.03
2023-04-02T12:01:12.694Z,99777.91
2023-04-02T12:05:26.393Z,99777.41
2023-04-02T12:09:30.227Z,99782.47
2023-04-02T12:13:49.753Z,99777.63
2023-04-02T12:17:51.589Z,99790.53
2023-04-02T12:21:53.674Z,99798.31
2023-04-02T12:25:57.867Z,99798.25
2023-04-02T12:30:14.125Z,99802.59
2023-04-02T12:34:17.852Z,99808.59
2023-04-02T12:38:21.543Z,99817.66
2023-04-02T12:42:31.294Z,99818.75
2023-04-02T12:46:35.886Z,99814.97
2023-04-02T12:50:39.901Z,99824.56
2023-04-02T12:54:46.378Z,99830.25
2023-04-02T12:58:53.314Z,99831.44
2023-04-02T13:03:09.925Z,99832.44
2023-04-02T13:07:16.840Z,99839.03
2023-04-02T13:11:18.693Z,99843.00
2023-04-02T13:15:22.856Z,99846.56
2023-04-02T13:19:29.907Z,99852.38
2023-04-02T13:23:35.078Z,99853.13
2023-04-02T13:27:36.537Z,99859.78
2023-04-02T13:31:38.040Z,99866.47
2023-04-02T13:35:41.215Z,99871.94
2023-04-02T13:39:42.690Z,99874.09
2023-04-02T13:43:44.238Z,99881.00
2023-04-02T13:47:45.778Z,99894.38
2023-04-02T13:51:50.714Z,99893.97
2023-04-02T13:55:52.274Z,99905.59
2023-04-02T13:59:53.792Z,99908.19
2023-04-02T14:03:55.873Z,99917.31
2023-04-02T14:08:07.293Z,99914.72
2023-04-02T14:12:17.376Z,99924.66
2023-04-02T14:16:32.743Z,99920.94
2023-04-02T14:20:42.564Z,99932.75
2023-04-02T14:24:56.320Z,99939.09
2023-04-02T14:29:05.823Z,99941.31
2023-04-02T14:33:14.729Z,99935.88
2023-04-02T14:37:22.972Z,99950.47
2023-04-02T14:41:32.485Z,99954.41
2023-04-02T14:45:46.713Z,99955.06
2023-04-02T14:49:53.296Z,99957.44
2023-04-02T14:54:02.262Z,99958.19
2023-04-02T14:58:13.823Z,99955.56
2023-04-02T15:02:22.851Z,99959.63
2023-04-02T15:06:29.914Z,99962.88
2023-04-02T15:10:34.564Z,99959.44
2023-04-02T15:14:44.073Z,99967.09
2023-04-02T15:18:45.646Z,99966.63
2023-04-02T15:23:01.659Z,99969.31
2023-04-02T15:27:23.931Z,99972.66
2023-04-02T15:31:28.351Z,99971.25
2023-04-02T15:35:39.960Z,99970.00
2023-04-02T15:39:56.687Z,99973.34
2023-04-02T15:44:06.184Z,99991.28
2023-04-02T15:48:26.145Z,99992.09
2023-04-02T15:52:36.753Z,99996.97
2023-04-02T15:56:49.976Z,99997.84
2023-04-02T16:01:03.218Z,100012.50
2023-04-02T16:05:14.915Z,100013.34
2023-04-02T16:09:26.032Z,100014.19
2023-04-02T16:13:31.110Z,100025.75
2023-04-02T16:17:39.252Z,100030.34
2023-04-02T16:21:47.914Z,100026.63
2023-04-02T16:25:59.821Z,100034.19
2023-04-02T16:30:21.754Z,100046.31
2023-04-02T16:34:34.053Z,100050.88
2023-04-02T16:38:46.084Z,100045.03
2023-04-02T16:42:55.114Z,100044.53
2023-04-02T16:47:04.524Z,100053.16
2023-04-02T16:51:18.262Z,100065.31
2023-04-02T16:55:35.026Z,100064.00
2023-04-02T16:59:43.560Z,100073.81
2023-04-02T17:03:59.781Z,100076.63
2023-04-02T17:08:13.522Z,100084.75
2023-04-02T17:12:21.065Z,100092.22
2023-04-02T17:16:32.321Z,100093.34
2023-04-02T17:20:34.170Z,100092.69
2023-04-02T17:24:38.985Z,100095.78
2023-04-02T17:28:44.275Z,100095.38
2023-04-02T17:32:45.852Z,100101.47
2023-04-02T17:36:56.122Z,100107.22
2023-04-02T17:41:07.240Z,100106.78
2023-04-02T17:45:16.990Z,100102.19
2023-04-02T17:49:24.120Z,100115.81
2023-04-02T17:53:37.648Z,100117.38
2023-04-02T17:57:49.969Z,100121.84
2023-04-02T18:01:55.043Z,100123.06
2023-04-02T18:06:00.368Z,100128.00
2023-04-02T18:10:09.890Z,100126.69
2023-04-02T18:14:26.658Z,100135.44
2023-04-02T18:18:45.840Z,100137.03
2023-04-02T18:22:56.212Z,100152.44
2023-04-02T18:27:15.045Z,100151.81
2023-04-02T18:31:27.043Z,100155.66
2023-04-02T18:35:33.232Z,100159.00
2023-04-02T18:39:46.664Z,100165.66
2023-04-02T18:44:03.314Z,100170.81
2023-04-02T18:48:17.322Z,100179.00
2023-04-02T18:52:20.170Z,100189.81
2023-04-02T18:56:22.876Z,100196.44
2023-04-02T19:00:28.871Z,100199.31
2023-04-02T19:04:34.618Z,100202.75
2023-04-02T19:08:43.918Z,100205.47
2023-04-02T19:12:45.512Z,100208.81
2023-04-02T19:17:15.026Z,100220.97
2023-04-02T19:21:25.162Z,100213.22
2023-04-02T19:25:39.937Z,100214.72
2023-04-02T19:29:59.678Z,100222.19
2023-04-02T19:34:15.396Z,100230.94
2023-04-02T19:38:36.086Z,100227.59
2023-04-02T19:42:44.532Z,100232.81
2023-04-02T19:46:46.186Z,100230.47
2023-04-02T19:50:49.108Z,100241.31
2023-04-02T19:54:50.544Z,100236.53
2023-04-02T19:58:53.463Z,100240.47
2023-04-02T20:02:54.923Z,100245.50
2023-04-02T20:06:56.399Z,100249.75
2023-04-02T20:10:59.061Z,100249.75
2023-04-02T20:15:02.764Z,100255.50
2023-04-02T20:19:04.204Z,100253.56
2023-04-02T20:23:05.799Z,100258.50
2023-04-02T20:27:07.235Z,100260.91
2023-04-02T20:31:11.418Z,100256.47
2023-04-02T20:35:12.932Z,100267.94
2023-04-02T20:39:14.423Z,100271.88
2023-04-02T20:43:15.849Z,100277.03
2023-04-02T20:47:18.757Z,100284.81
2023-04-02T20:51:20.207Z,100283.78
2023-04-02T20:55:21.656Z,100290.63
2023-04-02T20:59:23.137Z,100295.69
2023-04-02T21:03:25.934Z,100297.38
2023-04-02T21:07:27.846Z,100296.41
2023-04-02T21:11:29.284Z,100307.56
2023-04-02T21:15:30.833Z,100305.38
2023-04-02T21:19:34.373Z,100309.38
2023-04-02T21:23:35.920Z,100310.59
2023-04-02T21:27:37.385Z,100307.94
2023-04-02T21:31:40.702Z,100311.34
2023-04-02T21:35:43.599Z,100316.13
2023-04-02T21:39:45.044Z,100320.81
2023-04-02T21:43:46.528Z,100322.19
2023-04-02T21:47:48.027Z,100331.03
2023-04-02T21:51:51.615Z,100320.91
2023-04-02T21:56:00.735Z,100327.50
2023-04-02T22:00:02.384Z,100332.81
2023-04-02T22:04:06.598Z,100337.50
2023-04-02T22:08:09.491Z,100341.97
2023-04-02T22:12:10.919Z,100352.78
2023-04-02T22:16:14.210Z,100349.94
2023-04-02T22:20:15.674Z,100357.22
2023-04-02T22:24:19.417Z,100351.81
2023-04-02T22:28:21.195Z,100357.25
2023-04-02T22:32:22.649Z,100353.53
2023-04-02T22:36:25.308Z,100347.50
2023-04-02T22:40:28.120Z,100362.03
2023-04-02T22:44:29.573Z,100359.66
2023-04-02T22:48:31.443Z,100374.19
2023-04-02T22:52:32.870Z,100374.38
2023-04-02T22:56:35.759Z,100379.63
2023-04-02T23:00:38.004Z,100374.56
2023-04-02T23:04:41.054Z,100387.41
2023-04-02T23:08:42.575Z,100386.38
2023-04-02T23:12:45.361Z,100387.72
2023-04-02T23:16:46.873Z,100393.78
2023-04-02T23:20:48.452Z,100400.03
2023-04-02T23:24:49.900Z,100406.59
2023-04-02T23:28:52.678Z,100398.34
2023-04-02T23:32:54.312Z,100410.28
2023-04-02T23:36:55.768Z,100406.22
2023-04-02T23:40:57.209Z,100416.50
2023-04-02T23:44:59.973Z,100405.84
2023-04-02T23:49:02.032Z,100405.50
2023-04-02T23:53:03.475Z,100411.53
2023-04-02T23:57:04.976Z,100409.66
